sensor_id;sensor_type;location;lat;lon;timestamp;pressure;altitude;pressure_sealevel;temperature;humidity
34979;BME280;21185;50.978;13.720;2023-01-29T00:00:25;99402.94;;;-0.13;75.79
34979;BME280;21185;50.978;13.720;2023-01-29T00:05:28;99388.59;;;-0.15;75.91
34979;BME280;21185;50.978;13.720;2023-01-29T00:10:30;99381.69;;;-0.13;75.95
34979;BME280;21185;50.978;13.720;2023-01-29T00:15:32;99378.31;;;-0.14;75.84
34979;BME280;21185;50.978;13.720;2023-01-29T00:20:34;99361.06;;;-0.09;76.02
34979;BME280;21185;50.978;13.720;2023-01-29T00:25:36;99374.44;;;-0.04;75.94
34979;BME280;21185;50.978;13.720;2023-01-29T00:30:38;99370.03;;;0.00;76.03
34979;BME280;21185;50.978;13.720;2023-01-29T00:35:40;99365.66;;;0.02;75.98
34979;BME280;21185;50.978;13.720;2023-01-29T00:40:42;99352.06;;;0.02;76.07
34979;BME280;21185;50.978;13.720;2023-01-29T00:46:03;99346.31;;;-0.02;75.84
34979;BME280;21185;50.978;13.720;2023-01-29T00:51:07;99339.75;;;-0.08;75.81
34979;BME280;21185;50.978;13.720;2023-01-29T00:56:09;99344.19;;;-0.11;75.88
34979;BME280;21185;50.978;13.720;2023-01-29T01:01:11;99343.22;;;-0.09;75.97
34979;BME280;21185;50.978;13.720;2023-01-29T01:06:13;99344.03;;;-0.08;75.98
34979;BME280;21185;50.978;13.720;2023-01-29T01:11:16;99351.63;;;-0.07;75.78
34979;BME280;21185;50.978;13.720;2023-01-29T01:16:18;99355.97;;;-0.09;75.84
34979;BME280;21185;50.978;13.720;2023-01-29T01:21:21;99361.84;;;-0.07;76.00
34979;BME280;21185;50.978;13.720;2023-01-29T01:26:23;99366.16;;;-0.09;75.73
34979;BME280;21185;50.978;13.720;2023-01-29T01:31:25;99345.84;;;-0.10;75.88
34979;BME280;21185;50.978;13.720;2023-01-29T01:36:28;99334.66;;;-0.08;75.80
34979;BME280;21185;50.978;13.720;2023-01-29T01:41:30;99334.72;;;-0.09;75.75
34979;BME280;21185;50.978;13.720;2023-01-29T01:46:36;99334.81;;;-0.11;75.86
34979;BME280;21185;50.978;13.720;2023-01-29T01:51:41;99333.16;;;-0.12;75.60
34979;BME280;21185;50.978;13.720;2023-01-29T01:56:47;99328.03;;;-0.12;75.95
34979;BME280;21185;50.978;13.720;2023-01-29T02:01:52;99325.41;;;-0.10;75.90
34979;BME280;21185;50.978;13.720;2023-01-29T02:06:57;99334.81;;;-0.11;75.86
34979;BME280;21185;50.978;13.720;2023-01-29T02:12:20;99318.88;;;-0.16;75.63
34979;BME280;21185;50.978;13.720;2023-01-29T02:17:26;99322.41;;;-0.18;75.53
34979;BME280;21185;50.978;13.720;2023-01-29T02:38:56;99309.63;;;-0.37;75.39
34979;BME280;21185;50.978;13.720;2023-01-29T02:49:30;99300.88;;;-0.50;75.41
34979;BME280;21185;50.978;13.720;2023-01-29T02:54:57;99311.22;;;-0.53;75.38
34979;BME280;21185;50.978;13.720;2023-01-29T03:00:19;99321.41;;;-0.53;75.41
34979;BME280;21185;50.978;13.720;2023-01-29T03:05:33;99312.19;;;-0.56;75.38
34979;BME280;21185;50.978;13.720;2023-01-29T03:10:54;99309.81;;;-0.60;75.19
34979;BME280;21185;50.978;13.720;2023-01-29T03:21:43;99318.63;;;-0.68;75.28
34979;BME280;21185;50.978;13.720;2023-01-29T03:27:06;99319.78;;;-0.75;74.93
34979;BME280;21185;50.978;13.720;2023-01-29T03:32:31;99320.06;;;-0.81;74.87
34979;BME280;21185;50.978;13.720;2023-01-29T03:37:40;99317.56;;;-0.82;74.97
34979;BME280;21185;50.978;13.720;2023-01-29T03:53:30;99314.03;;;-0.99;74.90
34979;BME280;21185;50.978;13.720;2023-01-29T04:04:11;99316.13;;;-1.08;74.77
34979;BME280;21185;50.978;13.720;2023-01-29T04:09:31;99314.47;;;-1.09;74.65
34979;BME280;21185;50.978;13.720;2023-01-29T04:14:37;99302.75;;;-1.13;74.39
34979;BME280;21185;50.978;13.720;2023-01-29T04:19:39;99290.97;;;-1.16;74.49
34979;BME280;21185;50.978;13.720;2023-01-29T04:24:41;99283.28;;;-1.14;74.55
34979;BME280;21185;50.978;13.720;2023-01-29T04:29:49;99274.66;;;-1.12;74.44
34979;BME280;21185;50.978;13.720;2023-01-29T04:45:48;99246.09;;;-1.18;74.25
34979;BME280;21185;50.978;13.720;2023-01-29T04:56:17;99237.69;;;-1.20;74.38
34979;BME280;21185;50.978;13.720;2023-01-29T05:01:22;99219.03;;;-1.21;74.25
34979;BME280;21185;50.978;13.720;2023-01-29T05:06:27;99218.22;;;-1.21;74.18
34979;BME280;21185;50.978;13.720;2023-01-29T05:11:32;99207.19;;;-1.22;74.05
34979;BME280;21185;50.978;13.720;2023-01-29T05:16:41;99198.84;;;-1.25;73.93
34979;BME280;21185;50.978;13.720;2023-01-29T05:21:46;99192.19;;;-1.28;74.08
34979;BME280;21185;50.978;13.720;2023-01-29T05:26:52;99200.78;;;-1.31;73.88
34979;BME280;21185;50.978;13.720;2023-01-29T05:32:13;99201.66;;;-1.32;73.79
34979;BME280;21185;50.978;13.720;2023-01-29T05:37:16;99196.72;;;-1.35;73.77
34979;BME280;21185;50.978;13.720;2023-01-29T05:42:18;99193.41;;;-1.37;73.77
34979;BME280;21185;50.978;13.720;2023-01-29T05:47:20;99196.06;;;-1.40;73.75
34979;BME280;21185;50.978;13.720;2023-01-29T05:52:22;99201.09;;;-1.38;73.88
34979;BME280;21185;50.978;13.720;2023-01-29T05:57:24;99197.78;;;-1.40;73.61
34979;BME280;21185;50.978;13.720;2023-01-29T06:02:29;99193.59;;;-1.41;73.67
34979;BME280;21185;50.978;13.720;2023-01-29T06:07:32;99202.25;;;-1.45;73.28
34979;BME280;21185;50.978;13.720;2023-01-29T06:12:34;99211.72;;;-1.49;73.42
34979;BME280;21185;50.978;13.720;2023-01-29T06:17:35;99199.91;;;-1.50;73.38
34979;BME280;21185;50.978;13.720;2023-01-29T06:22:38;99190.59;;;-1.51;73.32
34979;BME280;21185;50.978;13.720;2023-01-29T06:27:39;99209.38;;;-1.53;73.23
34979;BME280;21185;50.978;13.720;2023-01-29T06:32:41;99233.19;;;-1.54;73.18
34979;BME280;21185;50.978;13.720;2023-01-29T06:37:43;99253.34;;;-1.50;73.12
34979;BME280;21185;50.978;13.720;2023-01-29T06:42:45;99254.94;;;-1.47;73.03
34979;BME280;21185;50.978;13.720;2023-01-29T06:47:47;99253.03;;;-1.42;73.13
34979;BME280;21185;50.978;13.720;2023-01-29T06:52:48;99265.63;;;-1.39;73.13
34979;BME280;21185;50.978;13.720;2023-01-29T06:57:50;99276.47;;;-1.34;72.98
34979;BME280;21185;50.978;13.720;2023-01-29T07:02:52;99281.44;;;-1.31;73.09
34979;BME280;21185;50.978;13.720;2023-01-29T07:07:57;99299.00;;;-1.25;73.07
34979;BME280;21185;50.978;13.720;2023-01-29T07:12:59;99296.19;;;-1.19;73.21
34979;BME280;21185;50.978;13.720;2023-01-29T07:18:03;99306.25;;;-1.16;73.26
34979;BME280;21185;50.978;13.720;2023-01-29T07:23:13;99310.25;;;-1.10;73.29
34979;BME280;21185;50.978;13.720;2023-01-29T07:28:19;99304.09;;;-1.05;73.41
34979;BME280;21185;50.978;13.720;2023-01-29T07:33:21;99304.66;;;-0.98;73.51
34979;BME280;21185;50.978;13.720;2023-01-29T07:38:23;99284.22;;;-0.96;73.49
34979;BME280;21185;50.978;13.720;2023-01-29T07:43:24;99294.22;;;-0.92;73.63
34979;BME280;21185;50.978;13.720;2023-01-29T07:48:26;99287.38;;;-0.91;73.32
34979;BME280;21185;50.978;13.720;2023-01-29T07:53:29;99289.09;;;-0.92;73.28
34979;BME280;21185;50.978;13.720;2023-01-29T07:58:31;99268.72;;;-0.92;73.35
34979;BME280;21185;50.978;13.720;2023-01-29T08:03:35;99262.75;;;-0.91;73.26
34979;BME280;21185;50.978;13.720;2023-01-29T08:08:37;99265.16;;;-0.88;73.01
34979;BME280;21185;50.978;13.720;2023-01-29T08:13:39;99248.06;;;-0.86;72.93
34979;BME280;21185;50.978;13.720;2023-01-29T08:18:41;99241.06;;;-0.81;73.09
34979;BME280;21185;50.978;13.720;2023-01-29T08:23:47;99237.47;;;-0.77;73.06
34979;BME280;21185;50.978;13.720;2023-01-29T08:28:48;99215.31;;;-0.75;72.81
34979;BME280;21185;50.978;13.720;2023-01-29T08:33:52;99210.13;;;-0.73;72.79
34979;BME280;21185;50.978;13.720;2023-01-29T08:38:54;99215.09;;;-0.70;72.90
34979;BME280;21185;50.978;13.720;2023-01-29T08:43:56;99218.47;;;-0.70;72.89
34979;BME280;21185;50.978;13.720;2023-01-29T08:48:58;99226.88;;;-0.68;72.75
34979;BME280;21185;50.978;13.720;2023-01-29T08:54:00;99234.19;;;-0.60;72.97
34979;BME280;21185;50.978;13.720;2023-01-29T08:59:02;99246.66;;;-0.54;73.00
34979;BME280;21185;50.978;13.720;2023-01-29T09:04:04;99241.41;;;-0.51;72.95
34979;BME280;21185;50.978;13.720;2023-01-29T09:09:06;99231.00;;;-0.46;73.02
34979;BME280;21185;50.978;13.720;2023-01-29T09:14:08;99217.97;;;-0.40;73.11
34979;BME280;21185;50.978;13.720;2023-01-29T09:19:12;99205.09;;;-0.37;73.02
34979;BME280;21185;50.978;13.720;2023-01-29T09:24:14;99218.44;;;-0.32;72.92
34979;BME280;21185;50.978;13.720;2023-01-29T09:29:16;99219.97;;;-0.28;73.00
34979;BME280;21185;50.978;13.720;2023-01-29T09:34:18;99196.09;;;-0.27;72.87
34979;BME280;21185;50.978;13.720;2023-01-29T09:39:20;99197.47;;;-0.20;73.21
34979;BME280;21185;50.978;13.720;2023-01-29T09:44:45;99211.72;;;-0.16;72.99
34979;BME280;21185;50.978;13.720;2023-01-29T09:49:54;99205.38;;;-0.07;73.23
34979;BME280;21185;50.978;13.720;2023-01-29T09:55:11;99197.31;;;0.00;73.36
34979;BME280;21185;50.978;13.720;2023-01-29T10:11:16;99167.16;;;0.09;73.43
34979;BME280;21185;50.978;13.720;2023-01-29T10:16:31;99157.47;;;0.15;73.45
34979;BME280;21185;50.978;13.720;2023-01-29T10:21:59;99155.38;;;0.23;73.63
34979;BME280;21185;50.978;13.720;2023-01-29T10:27:14;99158.38;;;0.31;73.62
34979;BME280;21185;50.978;13.720;2023-01-29T10:32:19;99155.75;;;0.33;73.40
34979;BME280;21185;50.978;13.720;2023-01-29T10:37:24;99159.03;;;0.35;73.67
34979;BME280;21185;50.978;13.720;2023-01-29T10:42:31;99161.44;;;0.38;73.49
34979;BME280;21185;50.978;13.720;2023-01-29T10:47:52;99157.06;;;0.40;73.83
34979;BME280;21185;50.978;13.720;2023-01-29T11:03:28;99135.88;;;0.55;74.15
34979;BME280;21185;50.978;13.720;2023-01-29T11:13:52;99113.06;;;0.52;73.68
34979;BME280;21185;50.978;13.720;2023-01-29T11:18:57;99096.91;;;0.52;73.81
34979;BME280;21185;50.978;13.720;2023-01-29T11:24:20;99091.72;;;0.53;73.94
34979;BME280;21185;50.978;13.720;2023-01-29T11:29:30;99083.00;;;0.57;73.86
34979;BME280;21185;50.978;13.720;2023-01-29T11:34:33;99065.78;;;0.61;73.86
34979;BME280;21185;50.978;13.720;2023-01-29T11:39:42;99050.13;;;0.67;73.94
34979;BME280;21185;50.978;13.720;2023-01-29T11:44:44;99045.69;;;0.71;73.72
34979;BME280;21185;50.978;13.720;2023-01-29T11:49:54;99045.34;;;0.77;73.83
34979;BME280;21185;50.978;13.720;2023-01-29T11:55:02;99061.19;;;0.83;73.85
34979;BME280;21185;50.978;13.720;2023-01-29T12:00:19;99047.41;;;0.86;73.82
34979;BME280;21185;50.978;13.720;2023-01-29T12:05:24;99033.66;;;0.88;73.92
34979;BME280;21185;50.978;13.720;2023-01-29T12:15:38;99018.06;;;0.93;74.09
34979;BME280;21185;50.978;13.720;2023-01-29T12:20:45;99012.78;;;0.96;73.80
34979;BME280;21185;50.978;13.720;2023-01-29T12:26:09;99004.72;;;1.04;73.92
34979;BME280;21185;50.978;13.720;2023-01-29T12:37:02;98984.00;;;1.08;73.62
34979;BME280;21185;50.978;13.720;2023-01-29T12:42:14;98970.66;;;1.03;73.58
34979;BME280;21185;50.978;13.720;2023-01-29T12:47:23;98962.00;;;1.06;73.95
34979;BME280;21185;50.978;13.720;2023-01-29T12:52:40;98979.81;;;1.07;73.92
34979;BME280;21185;50.978;13.720;2023-01-29T12:57:55;98970.31;;;1.09;73.94
34979;BME280;21185;50.978;13.720;2023-01-29T13:08:15;98965.78;;;1.14;74.32
34979;BME280;21185;50.978;13.720;2023-01-29T13:23:49;98936.75;;;1.15;73.97
34979;BME280;21185;50.978;13.720;2023-01-29T13:28:53;98942.50;;;1.19;74.18
34979;BME280;21185;50.978;13.720;2023-01-29T13:34:07;98931.28;;;1.21;74.28
34979;BME280;21185;50.978;13.720;2023-01-29T13:39:33;98927.72;;;1.24;74.27
34979;BME280;21185;50.978;13.720;2023-01-29T13:44:37;98930.38;;;1.22;74.31
34979;BME280;21185;50.978;13.720;2023-01-29T13:49:44;98928.72;;;1.21;74.21
34979;BME280;21185;50.978;13.720;2023-01-29T13:54:57;98951.00;;;1.19;74.25
34979;BME280;21185;50.978;13.720;2023-01-29T14:00:01;98949.91;;;1.23;74.46
34979;BME280;21185;50.978;13.720;2023-01-29T14:10:33;98939.50;;;1.26;74.63
34979;BME280;21185;50.978;13.720;2023-01-29T14:15:37;98926.00;;;1.24;74.23
34979;BME280;21185;50.978;13.720;2023-01-29T14:25:48;98934.41;;;1.26;74.72
34979;BME280;21185;50.978;13.720;2023-01-29T14:30:50;98935.41;;;1.24;74.79
34979;BME280;21185;50.978;13.720;2023-01-29T14:35:56;98913.47;;;1.20;74.61
34979;BME280;21185;50.978;13.720;2023-01-29T14:41:04;98917.84;;;1.18;74.59
34979;BME280;21185;50.978;13.720;2023-01-29T14:51:37;98919.75;;;1.14;74.65
34979;BME280;21185;50.978;13.720;2023-01-29T14:56:47;98934.28;;;1.14;74.89
34979;BME280;21185;50.978;13.720;2023-01-29T15:02:00;98945.31;;;1.14;74.84
34979;BME280;21185;50.978;13.720;2023-01-29T15:07:13;98938.66;;;1.12;75.02
34979;BME280;21185;50.978;13.720;2023-01-29T15:12:41;98930.06;;;1.13;75.05
34979;BME280;21185;50.978;13.720;2023-01-29T15:17:58;98935.28;;;1.11;75.22
34979;BME280;21185;50.978;13.720;2023-01-29T15:23:03;98934.53;;;1.09;75.22
34979;BME280;21185;50.978;13.720;2023-01-29T15:28:25;98932.16;;;1.06;75.14
34979;BME280;21185;50.978;13.720;2023-01-29T15:33:30;98916.16;;;1.03;75.37
34979;BME280;21185;50.978;13.720;2023-01-29T15:38:32;98916.69;;;0.93;75.27
34979;BME280;21185;50.978;13.720;2023-01-29T15:43:35;98923.78;;;0.88;75.38
34979;BME280;21185;50.978;13.720;2023-01-29T15:48:41;98904.50;;;0.83;75.48
34979;BME280;21185;50.978;13.720;2023-01-29T15:53:53;98902.31;;;0.77;nan
34979;BME280;21185;50.978;13.720;2023-01-29T15:58:57;98903.28;;;0.74;75.48
34979;BME280;21185;50.978;13.720;2023-01-29T16:04:01;98899.84;;;0.75;75.63
34979;BME280;21185;50.978;13.720;2023-01-29T16:09:05;98896.47;;;0.75;75.62
34979;BME280;21185;50.978;13.720;2023-01-29T16:14:12;98888.06;;;0.73;75.73
34979;BME280;21185;50.978;13.720;2023-01-29T16:19:23;98889.69;;;0.74;75.74
34979;BME280;21185;50.978;13.720;2023-01-29T16:24:26;98878.66;;;0.73;75.61
34979;BME280;21185;50.978;13.720;2023-01-29T16:29:33;98876.84;;;0.75;75.72
34979;BME280;21185;50.978;13.720;2023-01-29T16:34:39;98876.03;;;0.75;75.84
34979;BME280;21185;50.978;13.720;2023-01-29T16:39:46;98865.81;;;0.75;75.91
34979;BME280;21185;50.978;13.720;2023-01-29T16:50:31;98858.69;;;0.80;75.87
34979;BME280;21185;50.978;13.720;2023-01-29T16:55:48;98855.31;;;0.79;76.02
34979;BME280;21185;50.978;13.720;2023-01-29T17:00:54;98854.41;;;0.80;75.87
34979;BME280;21185;50.978;13.720;2023-01-29T17:06:08;98851.78;;;0.82;75.95
34979;BME280;21185;50.978;13.720;2023-01-29T17:11:13;98851.78;;;0.82;75.90
34979;BME280;21185;50.978;13.720;2023-01-29T17:16:33;98853.50;;;0.81;75.98
34979;BME280;21185;50.978;13.720;2023-01-29T17:21:35;98847.56;;;0.81;75.84
34979;BME280;21185;50.978;13.720;2023-01-29T17:26:38;98846.84;;;0.79;76.10
34979;BME280;21185;50.978;13.720;2023-01-29T17:31:41;98836.63;;;0.79;76.00
34979;BME280;21185;50.978;13.720;2023-01-29T17:36:44;98840.09;;;0.78;76.08
34979;BME280;21185;50.978;13.720;2023-01-29T17:41:52;98835.06;;;0.76;75.89
34979;BME280;21185;50.978;13.720;2023-01-29T17:46:54;98835.97;;;0.75;76.08
34979;BME280;21185;50.978;13.720;2023-01-29T17:51:56;98834.41;;;0.73;75.52
34979;BME280;21185;50.978;13.720;2023-01-29T17:56:58;98834.59;;;0.70;75.30
34979;BME280;21185;50.978;13.720;2023-01-29T18:02:00;98828.75;;;0.68;75.29
34979;BME280;21185;50.978;13.720;2023-01-29T18:07:02;98823.91;;;0.63;75.27
34979;BME280;21185;50.978;13.720;2023-01-29T18:12:08;98823.16;;;0.61;75.03
34979;BME280;21185;50.978;13.720;2023-01-29T18:17:11;98824.97;;;0.59;74.74
34979;BME280;21185;50.978;13.720;2023-01-29T18:22:14;98807.19;;;0.57;74.74
34979;BME280;21185;50.978;13.720;2023-01-29T18:27:16;98805.72;;;0.53;74.63
34979;BME280;21185;50.978;13.720;2023-01-29T18:32:18;98796.50;;;0.51;74.32
34979;BME280;21185;50.978;13.720;2023-01-29T18:37:20;98799.13;;;0.49;74.44
34979;BME280;21185;50.978;13.720;2023-01-29T18:42:22;98793.38;;;0.46;73.71
34979;BME280;21185;50.978;13.720;2023-01-29T18:47:24;98783.34;;;0.43;74.06
34979;BME280;21185;50.978;13.720;2023-01-29T18:52:26;98787.78;;;0.39;73.59
34979;BME280;21185;50.978;13.720;2023-01-29T18:57:28;98771.75;;;0.37;73.40
34979;BME280;21185;50.978;13.720;2023-01-29T19:02:50;98763.25;;;0.37;73.34
34979;BME280;21185;50.978;13.720;2023-01-29T19:07:51;98759.16;;;0.34;73.36
34979;BME280;21185;50.978;13.720;2023-01-29T19:12:53;98748.13;;;0.33;73.27
34979;BME280;21185;50.978;13.720;2023-01-29T19:17:56;98739.63;;;0.33;73.15
34979;BME280;21185;50.978;13.720;2023-01-29T19:22:59;98731.97;;;0.33;73.20
34979;BME280;21185;50.978;13.720;2023-01-29T19:28:01;98731.81;;;0.36;73.58
34979;BME280;21185;50.978;13.720;2023-01-29T19:33:03;98725.06;;;0.35;73.42
34979;BME280;21185;50.978;13.720;2023-01-29T19:38:05;98722.59;;;0.33;73.24
34979;BME280;21185;50.978;13.720;2023-01-29T19:43:07;98721.03;;;0.31;73.21
34979;BME280;21185;50.978;13.720;2023-01-29T19:48:09;98714.38;;;0.28;73.23
34979;BME280;21185;50.978;13.720;2023-01-29T19:53:11;98704.34;;;0.25;73.11
34979;BME280;21185;50.978;13.720;2023-01-29T19:58:13;98704.34;;;0.25;73.23
34979;BME280;21185;50.978;13.720;2023-01-29T20:03:15;98701.88;;;0.24;73.06
34979;BME280;21185;50.978;13.720;2023-01-29T20:08:17;98701.41;;;0.17;72.99
34979;BME280;21185;50.978;13.720;2023-01-29T20:13:19;98700.94;;;0.11;73.14
34979;BME280;21185;50.978;13.720;2023-01-29T20:18:22;98706.47;;;0.03;73.00
34979;BME280;21185;50.978;13.720;2023-01-29T20:23:24;98709.38;;;-0.03;73.13
34979;BME280;21185;50.978;13.720;2023-01-29T20:28:39;98698.69;;;-0.10;72.92
34979;BME280;21185;50.978;13.720;2023-01-29T20:33:41;98693.13;;;-0.16;72.94
34979;BME280;21185;50.978;13.720;2023-01-29T20:38:43;98679.63;;;-0.18;72.88
34979;BME280;21185;50.978;13.720;2023-01-29T20:43:45;98665.31;;;-0.21;73.08
34979;BME280;21185;50.978;13.720;2023-01-29T20:48:48;98666.22;;;-0.22;72.80
34979;BME280;21185;50.978;13.720;2023-01-29T20:53:56;98666.38;;;-0.25;72.69
34979;BME280;21185;50.978;13.720;2023-01-29T20:58:58;98660.56;;;-0.27;72.83
34979;BME280;21185;50.978;13.720;2023-01-29T21:03:59;98655.63;;;-0.30;72.93
34979;BME280;21185;50.978;13.720;2023-01-29T21:09:01;98643.88;;;-0.32;72.72
34979;BME280;21185;50.978;13.720;2023-01-29T21:14:03;98634.00;;;-0.39;72.10
34979;BME280;21185;50.978;13.720;2023-01-29T21:19:05;98626.53;;;-0.42;72.29
34979;BME280;21185;50.978;13.720;2023-01-29T21:24:07;98611.41;;;-0.45;72.35
34979;BME280;21185;50.978;13.720;2023-01-29T21:29:10;98585.16;;;-0.47;72.15
34979;BME280;21185;50.978;13.720;2023-01-29T21:34:12;98573.41;;;-0.49;72.18
34979;BME280;21185;50.978;13.720;2023-01-29T21:39:14;98577.69;;;-0.50;71.76
34979;BME280;21185;50.978;13.720;2023-01-29T21:44:21;98579.44;;;-0.50;71.77
34979;BME280;21185;50.978;13.720;2023-01-29T21:49:23;98579.44;;;-0.50;71.57
34979;BME280;21185;50.978;13.720;2023-01-29T21:54:25;98573.41;;;-0.49;71.57
34979;BME280;21185;50.978;13.720;2023-01-29T21:59:31;98554.66;;;-0.48;71.41
34979;BME280;21185;50.978;13.720;2023-01-29T22:04:33;98543.75;;;-0.50;71.36
34979;BME280;21185;50.978;13.720;2023-01-29T22:09:35;98517.50;;;-0.52;70.98
34979;BME280;21185;50.978;13.720;2023-01-29T22:14:37;98504.03;;;-0.54;71.42
34979;BME280;21185;50.978;13.720;2023-01-29T22:19:40;98498.19;;;-0.56;71.06
34979;BME280;21185;50.978;13.720;2023-01-29T22:24:42;98499.03;;;-0.56;71.09
34979;BME280;21185;50.978;13.720;2023-01-29T22:29:47;98480.28;;;-0.55;70.83
34979;BME280;21185;50.978;13.720;2023-01-29T22:34:48;98470.09;;;-0.55;70.86
34979;BME280;21185;50.978;13.720;2023-01-29T22:39:50;98458.16;;;-0.54;70.82
34979;BME280;21185;50.978;13.720;2023-01-29T22:44:52;98451.31;;;-0.54;71.09
34979;BME280;21185;50.978;13.720;2023-01-29T22:49:54;98446.16;;;-0.52;70.95
34979;BME280;21185;50.978;13.720;2023-01-29T22:54:56;98430.66;;;-0.49;70.80
34979;BME280;21185;50.978;13.720;2023-01-29T22:59:58;98416.19;;;-0.49;70.90
34979;BME280;21185;50.978;13.720;2023-01-29T23:05:00;98411.09;;;-0.49;71.01
34979;BME280;21185;50.978;13.720;2023-01-29T23:10:03;98402.63;;;-0.49;70.88
34979;BME280;21185;50.978;13.720;2023-01-29T23:15:06;98397.53;;;-0.49;70.46
34979;BME280;21185;50.978;13.720;2023-01-29T23:20:09;98383.97;;;-0.50;70.44
34979;BME280;21185;50.978;13.720;2023-01-29T23:25:11;98371.03;;;-0.47;70.63
34979;BME280;21185;50.978;13.720;2023-01-29T23:30:13;98352.19;;;-0.44;70.63
34979;BME280;21185;50.978;13.720;2023-01-29T23:35:15;98364.03;;;-0.43;70.41
34979;BME280;21185;50.978;13.720;2023-01-29T23:40:17;98342.81;;;-0.44;70.36
34979;BME280;21185;50.978;13.720;2023-01-29T23:45:19;98325.78;;;-0.43;70.10
34979;BME280;21185;50.978;13.720;2023-01-29T23:50:21;98310.50;;;-0.43;70.05
34979;BME280;21185;50.978;13.720;2023-01-29T23:55:23;98294.28;;;-0.42;69.78
